Ile km łódź berlin

Podróż samochodem. Łódź i Warszawę dzieli 130 kilometrów, które przy sprzyjających warunkach można pokonać w ok. 1,5 godziny. Przy średnim. Depesza METAR lotniska Łódź-Lublinek METAR = EPLL 110630Z 24007KT 220V280 9999 FEW013 21/18 Q1008 STACJA.. EPLL - Łódź-Lublinek (LCJ) POMIAR. Łódź Kaliska – drugi co do wielkości dworzec kolejowy i stacja kolejowa Łodzi, położony na zachód od centrum miasta. Według starej klasyfikacji. Samson Barmao i Kenza Dahmani wygrywają najgłośniejszy maraton w Polsce. Transmisja Live z DOZ Maratonu Łódź. Elita sportowa DOZ Maratonu Łódź. Tramwaje w Łodzi – system transportu tramwajowego w aglomeracji łódzkiej uruchomiony 23 grudnia 1898. Łódź była pierwszym miastem na terenie. Trasa Szczecin - Ciechocinek ma odległość w linii prostej km. Wyznaczanie trasy Szczecin - Ciechocinek którą można przejechać samochodem lub. Dibo (25-04-2013, 12:50) ile kosztuje przejazd grydziądz gdańsk. Piotr Surowiecki (25-04-2013, 16:01) Koszt przejazdu między węzłem Grudziądz a.

CZAS LOTU UŻYTKOWNIKÓW. Warszawa (Polska) - Iraklion (Grecja) Teresa, 07.07.2017: 3h 0min: 1906 km: TUIfly. Instrukcja wyznaczania trasy. Wpisz nazwę miejsca, z którego rozpoczynasz podróż w pole "Wyjazd z" w formacie ulica miasto kraj. Wpisz nazwę miejsca. Instrukcja wyznaczania trasy. Wpisz nazwę miejsca, z którego rozpoczynasz podróż w pole "Wyjazd z" w formacie ulica miasto kraj. Wpisz nazwę miejsca.